Time;durP1;ratioP1;P1;durP2;ratioP2;P2;SDS_P1;SDS_P2;PMS_P1;PMS_P2;Temp;Humidity;BMP_temperature;BMP_pressure;BME280_temperature;BME280_humidity;BME280_pressure;Samples;Min_cycle;Max_cycle;Signal;HPM_P1;HPM_P2
2021/12/13 00:06:53;;;;;;;13.23;7.30;;;7.70;99.60;;;;;;20919425;28;20686;-66
2021/12/13 00:17:08;;;;;;;11.97;6.90;;;7.70;99.90;;;;;;20918993;28;20267;-74
2021/12/13 00:27:24;;;;;;;11.10;6.67;;;7.70;99.90;;;;;;20917472;28;20234;-71
2021/12/13 00:37:39;;;;;;;10.53;7.20;;;7.80;99.70;;;;;;20916709;28;20271;-67
2021/12/13 00:47:43;;;;;;;11.87;6.67;;;7.80;99.90;;;;;;20916085;28;20248;-68
2021/12/13 00:57:48;;;;;;;11.37;7.37;;;7.80;99.60;;;;;;20915160;28;20236;-68
2021/12/13 01:08:06;;;;;;;11.67;7.47;;;7.80;99.80;;;;;;20914695;28;20303;-67
2021/12/13 01:18:56;;;;;;;12.70;7.10;;;7.80;99.90;;;;;;20913083;28;20373;-76
2021/12/13 01:29:03;;;;;;;11.17;7.37;;;7.80;99.90;;;;;;20913456;28;20290;-76
2021/12/13 01:39:10;;;;;;;10.37;7.23;;;7.90;99.90;;;;;;20912517;28;20238;-76
2021/12/13 01:49:13;;;;;;;10.83;7.20;;;7.90;99.80;;;;;;20912176;28;20206;-74
2021/12/13 02:09:41;;;;;;;12.30;7.90;;;7.90;99.90;;;;;;20911286;28;20213;-74
2021/12/13 02:19:53;;;;;;;15.27;9.07;;;7.80;99.90;;;;;;20911196;28;20290;-76
2021/12/13 02:30:00;;;;;;;12.07;8.33;;;7.80;99.90;;;;;;20925849;28;20543;-72
2021/12/13 02:40:04;;;;;;;14.83;8.27;;;7.80;99.90;;;;;;20925343;28;20569;-74
2021/12/13 02:50:17;;;;;;;11.30;7.67;;;7.80;99.90;;;;;;20925212;28;20655;-73
2021/12/13 03:00:34;;;;;;;13.53;8.57;;;7.80;99.90;;;;;;20924556;28;20261;-74
2021/12/13 03:10:39;;;;;;;12.27;8.00;;;7.90;99.90;;;;;;20923601;28;20203;-76
2021/12/13 03:20:53;;;;;;;10.43;7.80;;;7.90;99.90;;;;;;20922650;28;20234;-74
2021/12/13 03:31:02;;;;;;;11.50;7.53;;;7.90;99.90;;;;;;20922434;28;20205;-76
2021/12/13 03:41:08;;;;;;;11.37;8.30;;;7.90;99.90;;;;;;20920353;28;20242;-76
2021/12/13 03:51:16;;;;;;;13.33;8.00;;;7.90;99.90;;;;;;20920283;28;20654;-76
2021/12/13 04:01:43;;;;;;;10.20;7.90;;;7.90;99.90;;;;;;20919954;28;20229;-69
2021/12/13 04:11:46;;;;;;;14.73;8.20;;;8.00;99.90;;;;;;20918607;28;20275;-75
2021/12/13 04:22:01;;;;;;;10.77;8.20;;;8.00;99.90;;;;;;20917777;28;20287;-72
2021/12/13 04:32:26;;;;;;;12.53;7.73;;;8.00;99.90;;;;;;20917488;28;20626;-74
2021/12/13 04:42:29;;;;;;;14.17;8.53;;;8.00;99.90;;;;;;20915943;28;20260;-76
2021/12/13 04:52:33;;;;;;;12.27;8.10;;;8.10;99.90;;;;;;20914834;28;20675;-70
2021/12/13 05:02:35;;;;;;;11.90;8.70;;;8.00;99.90;;;;;;20914397;28;20310;-76
2021/12/13 05:12:38;;;;;;;11.63;9.00;;;8.10;99.90;;;;;;20914585;28;20237;-75
2021/12/13 05:23:01;;;;;;;11.67;8.80;;;8.10;99.90;;;;;;20913249;28;20295;-71
2021/12/13 05:33:07;;;;;;;10.53;8.43;;;8.10;99.90;;;;;;20912940;28;20214;-75
2021/12/13 05:43:24;;;;;;;12.23;9.20;;;8.20;99.90;;;;;;20911896;28;20245;-74
2021/12/13 05:53:43;;;;;;;12.47;9.20;;;8.10;99.90;;;;;;20909959;28;20260;-74
2021/12/13 06:03:52;;;;;;;14.32;12.00;;;8.20;99.90;;;;;;20924507;28;20437;-73
2021/12/13 06:14:18;;;;;;;19.47;9.47;;;8.60;99.90;;;;;;20928039;28;20207;-75
2021/12/13 06:24:25;;;;;;;15.00;9.73;;;8.20;99.90;;;;;;20926681;28;20235;-75
2021/12/13 06:34:27;;;;;;;14.83;10.20;;;8.10;99.90;;;;;;20925671;28;20508;-72
2021/12/13 06:44:41;;;;;;;13.87;9.63;;;8.10;99.90;;;;;;20924817;28;20250;-75
2021/12/13 06:55:03;;;;;;;14.40;10.40;;;8.00;99.90;;;;;;20924295;28;20219;-74
2021/12/13 07:05:14;;;;;;;14.77;10.63;;;8.00;99.90;;;;;;20923388;28;20238;-76
2021/12/13 07:15:42;;;;;;;15.27;10.53;;;8.10;99.90;;;;;;20922676;28;20259;-75
2021/12/13 07:25:46;;;;;;;15.83;10.50;;;8.10;99.90;;;;;;20921715;28;20242;-76
2021/12/13 07:35:48;;;;;;;17.30;11.13;;;8.20;99.90;;;;;;20920620;28;20207;-73
2021/12/13 07:46:21;;;;;;;15.90;11.00;;;8.20;99.90;;;;;;20920170;28;20308;-76
2021/12/13 07:56:29;;;;;;;17.67;11.70;;;8.30;99.90;;;;;;20919562;28;20293;-75
2021/12/13 08:06:36;;;;;;;18.57;11.33;;;8.40;99.90;;;;;;20918391;28;20308;-72
2021/12/13 08:16:45;;;;;;;18.90;12.03;;;8.40;99.90;;;;;;20918199;28;20207;-75
2021/12/13 08:26:52;;;;;;;20.20;12.17;;;8.50;99.90;;;;;;20915114;28;20577;-75
2021/12/13 08:36:55;;;;;;;14.13;10.63;;;8.60;99.90;;;;;;20915374;28;20543;-71
2021/12/13 08:47:06;;;;;;;17.77;11.37;;;8.70;99.90;;;;;;20915010;28;20240;-73
2021/12/13 08:57:32;;;;;;;16.53;11.60;;;8.80;99.90;;;;;;20914849;28;20211;-75
2021/12/13 09:07:34;;;;;;;21.53;13.27;;;8.80;99.90;;;;;;20913234;28;20636;-74
2021/12/13 09:17:41;;;;;;;16.27;11.13;;;8.90;99.90;;;;;;20912139;28;20681;-72
2021/12/13 09:27:48;;;;;;;15.50;10.83;;;9.10;99.90;;;;;;20912448;28;20442;-75
2021/12/13 09:37:51;;;;;;;15.60;10.70;;;9.00;99.90;;;;;;20911232;28;20206;-74
2021/12/13 09:47:54;;;;;;;15.47;10.67;;;9.10;99.90;;;;;;20910858;28;20269;-76
2021/12/13 09:58:07;;;;;;;14.40;10.67;;;9.00;99.90;;;;;;20910529;28;20203;-75
2021/12/13 10:08:13;;;;;;;17.80;11.17;;;9.10;99.90;;;;;;20909556;28;20281;-76
2021/12/13 10:18:27;;;;;;;8.70;6.63;;;9.30;99.90;;;;;;20909933;28;20288;-76
2021/12/13 10:28:37;;;;;;;9.43;6.57;;;9.30;99.90;;;;;;20909920;28;20236;-75
2021/12/13 10:38:52;;;;;;;9.63;7.30;;;9.40;99.90;;;;;;20909288;28;20228;-74
2021/12/13 10:49:00;;;;;;;12.53;8.23;;;9.50;99.90;;;;;;20920586;28;20639;-75
2021/12/13 10:59:07;;;;;;;12.37;9.07;;;9.50;99.90;;;;;;20924726;28;20235;-75
2021/12/13 11:09:13;;;;;;;50.90;31.17;;;9.60;99.90;;;;;;20923550;28;20232;-71
2021/12/13 11:19:18;;;;;;;14.40;10.10;;;9.80;99.90;;;;;;20923677;28;20281;-66
2021/12/13 11:29:20;;;;;;;21.23;12.70;;;9.80;99.90;;;;;;20922504;28;20232;-71
2021/12/13 11:39:38;;;;;;;17.10;9.83;;;9.90;99.90;;;;;;20921790;28;20255;-72
2021/12/13 11:49:57;;;;;;;13.57;9.30;;;9.90;99.90;;;;;;20920107;28;20293;-74
2021/12/13 12:00:23;;;;;;;13.63;9.90;;;10.00;99.90;;;;;;20920586;28;20219;-74
2021/12/13 12:10:51;;;;;;;16.30;10.87;;;9.90;99.90;;;;;;20917513;28;20214;-73
2021/12/13 12:21:35;;;;;;;16.40;10.20;;;10.00;99.90;;;;;;20917264;28;20684;-76
2021/12/13 12:31:41;;;;;;;18.73;11.50;;;10.00;99.90;;;;;;20916214;28;20218;-74
2021/12/13 12:42:05;;;;;;;16.63;11.10;;;10.20;99.90;;;;;;20915031;28;20245;-74
2021/12/13 12:52:14;;;;;;;17.50;11.57;;;10.10;99.90;;;;;;20914928;28;20209;-76
2021/12/13 13:02:18;;;;;;;23.50;10.33;;;10.10;99.90;;;;;;20914033;28;20242;-74
2021/12/13 13:12:29;;;;;;;16.80;11.57;;;10.10;99.90;;;;;;20912702;28;20211;-67
2021/12/13 13:22:36;;;;;;;15.43;10.57;;;10.10;99.90;;;;;;20913300;28;20703;-67
2021/12/13 13:32:58;;;;;;;18.70;13.83;;;10.20;99.90;;;;;;20913767;28;20240;-73
2021/12/13 13:43:04;;;;;;;15.53;10.50;;;10.10;99.90;;;;;;20911481;28;20650;-73
2021/12/13 13:53:19;;;;;;;14.17;10.67;;;10.10;99.90;;;;;;20909885;28;20204;-72
2021/12/13 14:03:31;;;;;;;16.80;11.73;;;10.20;99.90;;;;;;20910750;28;20237;-73
2021/12/13 14:13:36;;;;;;;15.00;10.93;;;10.20;99.90;;;;;;20911153;28;20679;-72
2021/12/13 14:23:39;;;;;;;17.40;12.77;;;10.20;99.90;;;;;;20923379;28;20233;-76
2021/12/13 14:33:55;;;;;;;17.97;12.80;;;10.10;99.90;;;;;;20926130;28;20214;-75
2021/12/13 14:44:02;;;;;;;17.08;12.15;;;10.20;99.90;;;;;;20925312;28;20445;-74
2021/12/13 14:54:04;;;;;;;17.00;11.40;;;10.20;99.90;;;;;;20924535;28;20669;-76
2021/12/13 15:04:20;;;;;;;24.83;13.73;;;10.00;99.90;;;;;;20923466;28;20695;-70
2021/12/13 15:14:29;;;;;;;22.37;16.13;;;9.90;99.90;;;;;;20922484;28;20205;-72
2021/12/13 15:24:33;;;;;;;25.47;17.43;;;10.00;99.90;;;;;;20921411;28;20234;-70
2021/12/13 15:34:44;;;;;;;24.70;16.97;;;9.90;99.90;;;;;;20920467;28;20605;-75
2021/12/13 15:44:45;;;;;;;25.23;17.13;;;9.90;99.90;;;;;;20920617;28;20316;-71
2021/12/13 15:54:54;;;;;;;24.50;16.50;;;9.90;99.90;;;;;;20919843;28;20208;-77
2021/12/13 16:05:01;;;;;;;27.07;18.93;;;9.90;99.90;;;;;;20919141;28;20752;-74
2021/12/13 16:15:05;;;;;;;24.67;15.33;;;9.80;99.90;;;;;;20918621;28;20208;-65
2021/12/13 16:25:39;;;;;;;28.43;18.57;;;9.80;99.90;;;;;;20918206;28;20703;-75
2021/12/13 16:35:45;;;;;;;29.83;18.83;;;9.70;99.90;;;;;;20918219;28;20262;-73
2021/12/13 16:45:50;;;;;;;28.50;18.10;;;9.70;99.90;;;;;;20916772;28;20266;-77
2021/12/13 16:55:52;;;;;;;23.97;15.00;;;9.70;99.90;;;;;;20916530;28;20285;-75
2021/12/13 17:06:01;;;;;;;22.10;14.10;;;9.80;99.90;;;;;;20914559;28;20236;-74
2021/12/13 17:16:16;;;;;;;18.53;12.23;;;9.70;99.90;;;;;;20914408;28;20274;-79
2021/12/13 17:26:29;;;;;;;19.73;12.83;;;9.80;99.90;;;;;;20913781;28;20231;-78
2021/12/13 17:36:43;;;;;;;19.97;13.57;;;9.70;99.90;;;;;;20913813;28;20542;-71
2021/12/13 17:46:46;;;;;;;19.47;13.53;;;9.70;99.90;;;;;;20912210;28;20660;-78
2021/12/13 17:56:53;;;;;;;17.37;12.67;;;9.70;99.90;;;;;;20912015;28;20257;-75
2021/12/13 18:06:57;;;;;;;20.40;13.17;;;9.70;99.90;;;;;;20912878;28;20754;-76
2021/12/13 18:17:24;;;;;;;18.17;12.73;;;9.70;99.90;;;;;;20911409;28;20326;-76
2021/12/13 18:27:39;;;;;;;20.43;13.37;;;9.70;99.90;;;;;;20885643;28;20299;-75
2021/12/13 18:37:41;;;;;;;20.23;13.83;;;9.60;99.90;;;;;;20847700;28;20277;-72
2021/12/13 18:47:52;;;;;;;19.07;13.67;;;9.70;99.90;;;;;;20827062;28;20262;-71
2021/12/13 18:58:01;;;;;;;22.07;14.77;;;9.70;99.90;;;;;;20833703;28;20199;-70
2021/12/13 19:08:36;;;;;;;22.37;15.40;;;9.70;99.90;;;;;;20915428;28;20238;-76
2021/12/13 19:18:46;;;;;;;20.60;14.43;;;9.60;99.90;;;;;;20923915;28;20207;-71
2021/12/13 19:28:56;;;;;;;20.23;15.03;;;9.60;99.90;;;;;;20920215;28;20231;-72
2021/12/13 19:39:14;;;;;;;23.73;16.83;;;9.60;99.90;;;;;;20856364;28;20418;-70
2021/12/13 19:49:28;;;;;;;23.33;15.97;;;9.60;99.90;;;;;;20837955;28;20240;-70
2021/12/13 19:59:41;;;;;;;24.13;16.73;;;8.60;99.90;;;;;;20837886;28;20208;-66
2021/12/13 20:09:47;;;;;;;24.37;17.17;;;9.50;99.90;;;;;;20836024;28;20764;-77
2021/12/13 20:19:55;;;;;;;28.40;18.03;;;9.50;99.90;;;;;;20833945;28;20208;-79
2021/12/13 20:30:09;;;;;;;29.20;16.63;;;9.50;99.90;;;;;;20833155;28;20236;-71
2021/12/13 20:40:17;;;;;;;35.93;22.57;;;9.60;99.90;;;;;;20832560;28;20240;-71
2021/12/13 20:50:29;;;;;;;23.37;15.67;;;9.50;99.90;;;;;;20831939;28;20236;-68
2021/12/13 21:00:40;;;;;;;23.57;18.00;;;9.60;99.90;;;;;;20829376;28;20530;-73
2021/12/13 21:11:01;;;;;;;21.67;14.67;;;9.60;99.90;;;;;;20834462;28;20224;-66
2021/12/13 21:21:05;;;;;;;22.13;15.30;;;9.60;99.90;;;;;;20868224;28;20206;-68
2021/12/13 21:31:13;;;;;;;19.53;13.23;;;9.40;99.90;;;;;;20826165;28;20216;-77
2021/12/13 21:41:41;;;;;;;20.80;12.87;;;9.50;99.90;;;;;;20828249;28;20583;-79
2021/12/13 21:51:56;;;;;;;18.83;11.73;;;9.50;99.90;;;;;;20827093;28;20215;-76
2021/12/13 22:02:04;;;;;;;18.93;11.80;;;9.40;99.90;;;;;;20826835;28;20318;-73
2021/12/13 22:12:12;;;;;;;18.03;12.83;;;9.40;99.90;;;;;;20826829;28;20287;-77
2021/12/13 22:22:19;;;;;;;18.53;12.60;;;9.40;99.90;;;;;;20861831;28;20228;-73
2021/12/13 22:32:22;;;;;;;18.03;12.17;;;9.40;99.90;;;;;;20908052;28;20211;-77
2021/12/13 22:42:25;;;;;;;20.27;11.47;;;9.40;99.90;;;;;;20918828;28;20603;-79
2021/12/13 22:52:31;;;;;;;18.20;10.90;;;9.40;99.90;;;;;;20927880;28;20679;-68
2021/12/13 23:02:35;;;;;;;17.77;11.00;;;9.40;99.90;;;;;;20925840;28;20235;-73
2021/12/13 23:22:57;;;;;;;13.27;9.20;;;9.50;99.90;;;;;;20923476;28;20239;-74
2021/12/13 23:33:06;;;;;;;14.80;9.37;;;9.40;99.90;;;;;;20922963;28;20237;-83
2021/12/13 23:53:34;;;;;;;10.67;7.20;;;9.40;99.90;;;;;;20923672;28;20270;-69
